createdAt,value
2023-01-31T00:00:09.337Z,102176.94
2023-01-31T00:02:37.641Z,102172.41
2023-01-31T00:05:06.226Z,102174.19
2023-01-31T00:07:34.917Z,102160.22
2023-01-31T00:10:04.715Z,102168.81
2023-01-31T00:12:32.991Z,102166.41
2023-01-31T00:15:01.395Z,102162.13
2023-01-31T00:17:29.985Z,102163.69
2023-01-31T00:19:58.199Z,102157.44
2023-01-31T00:22:26.333Z,102160.06
2023-01-31T00:24:54.509Z,102165.94
2023-01-31T00:27:24.062Z,102146.69
2023-01-31T00:29:52.557Z,102140.59
2023-01-31T00:32:20.808Z,102135.06
2023-01-31T00:34:48.901Z,102129.09
2023-01-31T00:37:17.554Z,102121.06
2023-01-31T00:39:45.722Z,102122.50
2023-01-31T00:42:13.784Z,102117.09
2023-01-31T00:44:43.339Z,102121.41
2023-01-31T00:47:11.441Z,102115.44
2023-01-31T00:49:39.615Z,102106.72
2023-01-31T00:52:07.717Z,102118.66
2023-01-31T00:54:35.783Z,102124.50
2023-01-31T00:57:03.907Z,102116.63
2023-01-31T00:59:32.060Z,102112.19
2023-01-31T01:02:01.638Z,102107.47
2023-01-31T01:04:29.834Z,102105.81
2023-01-31T01:06:58.080Z,102113.72
2023-01-31T01:09:26.903Z,102103.19
2023-01-31T01:11:55.399Z,102104.75
2023-01-31T01:14:23.529Z,102088.81
2023-01-31T01:16:51.784Z,102087.84
2023-01-31T01:19:21.821Z,102087.59
2023-01-31T01:21:50.031Z,102084.81
2023-01-31T01:24:20.129Z,102070.16
2023-01-31T01:26:48.739Z,102079.00
2023-01-31T01:29:16.910Z,102079.13
2023-01-31T01:31:45.266Z,102079.13
2023-01-31T01:34:15.913Z,102084.38
2023-01-31T01:36:47.999Z,102070.53
2023-01-31T01:39:16.692Z,102069.19
2023-01-31T01:41:45.828Z,102070.97
2023-01-31T01:44:46.917Z,102066.78
2023-01-31T01:47:24.764Z,102069.56
2023-01-31T01:49:56.593Z,102046.25
2023-01-31T01:52:28.961Z,102038.63
2023-01-31T01:55:00.859Z,102049.41
2023-01-31T01:57:34.191Z,102048.44
2023-01-31T02:00:11.074Z,102044.16
2023-01-31T02:02:39.382Z,102036.81
2023-01-31T02:05:09.745Z,102035.06
2023-01-31T02:07:39.622Z,102026.28
2023-01-31T02:10:13.620Z,102033.34
2023-01-31T02:12:42.285Z,102022.13
2023-01-31T02:15:11.559Z,102029.78
2023-01-31T02:17:40.231Z,102016.50
2023-01-31T02:20:31.848Z,102012.06
2023-01-31T02:23:26.276Z,101996.41
2023-01-31T02:26:29.343Z,102014.94
2023-01-31T02:29:26.605Z,102006.22
2023-01-31T02:32:32.115Z,102000.13
2023-01-31T02:35:08.204Z,102006.09
2023-01-31T02:37:44.245Z,102004.41
2023-01-31T02:40:21.743Z,102005.25
2023-01-31T02:42:56.432Z,101984.34
2023-01-31T02:45:35.460Z,101979.78
2023-01-31T02:48:13.091Z,101990.31
2023-01-31T02:50:49.203Z,101959.69
2023-01-31T02:53:23.687Z,101959.56
2023-01-31T02:56:14.615Z,101960.41
2023-01-31T02:58:48.940Z,101955.84
2023-01-31T03:01:23.332Z,101962.66
2023-01-31T03:03:52.881Z,101938.81
2023-01-31T03:06:54.774Z,101939.25
2023-01-31T03:09:31.814Z,101931.09
2023-01-31T03:12:05.975Z,101941.63
2023-01-31T03:14:40.358Z,101933.47
2023-01-31T03:17:33.155Z,101938.47
2023-01-31T03:20:08.008Z,101927.78
2023-01-31T03:22:41.000Z,101921.84
2023-01-31T03:25:13.029Z,101913.94
2023-01-31T03:27:46.387Z,101914.78
2023-01-31T03:30:18.629Z,101908.81
2023-01-31T03:32:52.584Z,101912.28
2023-01-31T03:35:23.298Z,101908.00
2023-01-31T03:37:58.417Z,101910.06
2023-01-31T03:40:31.885Z,101893.28
2023-01-31T03:43:06.648Z,101902.59
2023-01-31T03:45:39.861Z,101901.75
2023-01-31T03:48:14.417Z,101876.28
2023-01-31T03:50:45.651Z,101893.72
2023-01-31T03:53:19.480Z,101891.22
2023-01-31T03:55:53.529Z,101879.88
2023-01-31T03:58:27.920Z,101877.34
2023-01-31T04:00:59.214Z,101883.75
2023-01-31T04:03:33.168Z,101876.41
2023-01-31T04:06:01.317Z,101883.44
2023-01-31T04:08:32.556Z,101887.06
2023-01-31T04:11:02.200Z,101880.00
2023-01-31T04:13:30.398Z,101858.94
2023-01-31T04:15:58.585Z,101866.56
2023-01-31T04:18:26.809Z,101865.59
2023-01-31T04:20:55.140Z,101858.53
2023-01-31T04:23:25.119Z,101861.59
2023-01-31T04:25:56.130Z,101860.06
2023-01-31T04:28:24.609Z,101867.16
2023-01-31T04:30:55.438Z,101855.22
2023-01-31T04:33:23.899Z,101861.72
2023-01-31T04:35:52.992Z,101869.59
2023-01-31T04:38:21.311Z,101875.41
2023-01-31T04:40:49.666Z,101866.25
2023-01-31T04:43:19.113Z,101885.75
2023-01-31T04:45:47.436Z,101878.69
2023-01-31T04:48:15.528Z,101885.06
2023-01-31T04:50:43.616Z,101895.41
2023-01-31T04:53:12.064Z,101896.09
2023-01-31T04:55:40.310Z,101902.44
2023-01-31T04:58:08.793Z,101910.44
2023-01-31T05:00:38.428Z,101914.19
2023-01-31T05:03:07.372Z,101922.84
2023-01-31T05:05:38.764Z,101929.19
2023-01-31T05:08:07.763Z,101947.03
2023-01-31T05:10:37.308Z,101959.47
2023-01-31T05:13:06.005Z,101956.97
2023-01-31T05:15:36.380Z,101971.34
2023-01-31T05:18:06.693Z,101982.00
2023-01-31T05:20:39.839Z,101986.66
2023-01-31T05:23:10.980Z,101988.69
2023-01-31T05:25:39.247Z,101988.69
2023-01-31T05:28:07.408Z,101996.00
2023-01-31T05:30:38.595Z,102008.44
2023-01-31T05:33:08.373Z,102000.69
2023-01-31T05:35:36.461Z,102010.34
2023-01-31T05:38:04.675Z,101997.56
2023-01-31T05:40:32.908Z,102007.63
2023-01-31T05:43:02.026Z,102017.06
2023-01-31T05:45:31.341Z,102005.00
2023-01-31T05:48:00.259Z,102003.34
2023-01-31T05:50:29.819Z,102001.69
2023-01-31T05:53:01.011Z,102013.41
2023-01-31T05:55:29.232Z,102014.38
2023-01-31T05:57:57.967Z,102011.28
2023-01-31T06:00:27.262Z,102009.63
2023-01-31T06:02:59.699Z,102011.75
2023-01-31T06:05:29.590Z,102010.81
2023-01-31T06:07:57.734Z,102013.69
2023-01-31T06:10:25.873Z,102012.84
2023-01-31T06:12:54.135Z,102016.53
2023-01-31T06:15:22.713Z,102007.97
2023-01-31T06:17:51.149Z,102021.09
2023-01-31T06:20:19.648Z,102010.59
2023-01-31T06:22:49.276Z,102017.03
2023-01-31T06:25:17.596Z,102003.91
2023-01-31T06:27:45.895Z,102017.19
2023-01-31T06:30:14.900Z,102019.91
2023-01-31T06:32:42.993Z,102012.75
2023-01-31T06:35:11.532Z,102010.38
2023-01-31T06:37:39.684Z,102005.09
2023-01-31T06:40:10.747Z,102010.25
2023-01-31T06:42:38.962Z,102012.75
2023-01-31T06:45:07.909Z,102000.31
2023-01-31T06:47:36.229Z,102013.59
2023-01-31T06:50:04.537Z,102030.19
2023-01-31T06:52:32.599Z,102026.59
2023-01-31T06:55:00.698Z,102030.41
2023-01-31T06:57:30.424Z,102015.75
2023-01-31T06:59:58.708Z,102014.91
2023-01-31T07:02:27.121Z,102038.66
2023-01-31T07:04:55.559Z,102011.56
2023-01-31T07:07:23.713Z,102022.91
2023-01-31T07:09:52.337Z,102034.38
2023-01-31T07:12:20.591Z,102033.53
2023-01-31T07:14:50.111Z,102037.25
2023-01-31T07:17:18.186Z,102047.75
2023-01-31T07:19:46.272Z,102050.38
2023-01-31T07:22:14.437Z,102061.59
2023-01-31T07:24:42.672Z,102058.84
2023-01-31T07:27:13.344Z,102071.28
2023-01-31T07:29:41.540Z,102073.16
2023-01-31T07:32:11.441Z,102072.22
2023-01-31T07:34:39.567Z,102086.41
2023-01-31T07:37:07.703Z,102079.72
2023-01-31T07:39:35.858Z,102083.28
2023-01-31T07:42:03.991Z,102105.13
2023-01-31T07:44:32.315Z,102094.53
2023-01-31T07:47:00.786Z,102092.97
2023-01-31T07:49:30.198Z,102094.63
2023-01-31T07:51:58.311Z,102095.59
2023-01-31T07:54:26.356Z,102106.09
2023-01-31T07:56:54.537Z,102093.66
2023-01-31T07:59:22.707Z,102096.44
2023-01-31T08:02:08.529Z,102097.25
2023-01-31T08:04:38.001Z,102095.13
2023-01-31T08:07:07.121Z,102094.53
2023-01-31T08:09:35.434Z,102105.13
2023-01-31T08:12:03.598Z,102113.00
2023-01-31T08:14:33.056Z,102117.31
2023-01-31T08:17:01.271Z,102125.19
2023-01-31T08:19:29.556Z,102122.47
2023-01-31T08:21:59.205Z,102126.06
2023-01-31T08:24:27.380Z,102134.16
2023-01-31T08:26:55.868Z,102136.78
2023-01-31T08:29:24.651Z,102134.38
2023-01-31T08:31:53.543Z,102166.72
2023-01-31T08:34:23.509Z,102135.34
2023-01-31T08:36:51.784Z,102140.25
2023-01-31T08:39:21.443Z,102130.44
2023-01-31T08:41:49.636Z,102144.53
2023-01-31T08:44:17.885Z,102140.00
2023-01-31T08:46:46.918Z,102135.59
2023-01-31T08:49:15.285Z,102133.94
2023-01-31T08:51:43.402Z,102135.47
2023-01-31T08:54:12.996Z,102139.88
2023-01-31T08:56:42.508Z,102137.25
2023-01-31T08:59:11.900Z,102136.56
2023-01-31T09:01:42.507Z,102148.59
2023-01-31T09:04:10.687Z,102142.63
2023-01-31T09:06:38.869Z,102153.84
2023-01-31T09:09:07.030Z,102157.44
2023-01-31T09:11:36.150Z,102149.22
2023-01-31T09:14:05.638Z,102161.28
2023-01-31T09:16:33.949Z,102152.22
2023-01-31T09:19:02.083Z,102153.88
2023-01-31T09:21:30.382Z,102155.56
2023-01-31T09:23:59.997Z,102157.94
2023-01-31T09:26:28.217Z,102167.16
2023-01-31T09:28:58.075Z,102181.81
2023-01-31T09:31:27.790Z,102173.94
2023-01-31T09:33:56.373Z,102189.22
2023-01-31T09:36:25.988Z,102186.13
2023-01-31T09:38:59.720Z,102197.34
2023-01-31T09:41:34.423Z,102199.38
2023-01-31T09:44:10.216Z,102200.22
2023-01-31T09:46:43.390Z,102205.47
2023-01-31T09:49:19.750Z,102207.00
2023-01-31T09:51:58.143Z,102196.25
2023-01-31T09:54:33.315Z,102205.34
2023-01-31T09:57:09.906Z,102197.81
2023-01-31T09:59:46.137Z,102181.81
2023-01-31T10:02:48.912Z,102213.34
2023-01-31T10:05:30.843Z,102204.97
2023-01-31T10:08:08.767Z,102231.25
2023-01-31T10:10:42.731Z,102223.38
2023-01-31T10:13:17.496Z,102231.72
2023-01-31T10:15:49.455Z,102231.72
2023-01-31T10:18:25.987Z,102248.94
2023-01-31T10:20:57.970Z,102251.31
2023-01-31T10:23:31.477Z,102256.22
2023-01-31T10:26:02.750Z,102264.09
2023-01-31T10:28:37.806Z,102277.84
2023-01-31T10:31:13.541Z,102285.75
2023-01-31T10:33:52.071Z,102270.19
2023-01-31T10:36:28.039Z,102295.19
2023-01-31T10:39:04.062Z,102315.16
2023-01-31T10:41:42.115Z,102317.41
2023-01-31T10:44:21.684Z,102318.34
2023-01-31T10:46:50.308Z,102324.94
2023-01-31T10:49:25.134Z,102330.22
2023-01-31T10:52:09.165Z,102348.97
2023-01-31T10:54:49.892Z,102351.00
2023-01-31T10:57:18.671Z,102379.69
2023-01-31T10:59:48.969Z,102359.72
2023-01-31T11:02:22.400Z,102357.56
2023-01-31T11:04:54.028Z,102363.78
2023-01-31T11:07:22.287Z,102355.25
2023-01-31T11:09:54.159Z,102354.06
2023-01-31T11:12:23.333Z,102366.88
2023-01-31T11:15:08.020Z,102382.41
2023-01-31T11:17:38.633Z,102372.81
2023-01-31T11:20:23.335Z,102385.16
2023-01-31T11:22:53.370Z,102391.94
2023-01-31T11:25:23.762Z,102372.69
2023-01-31T11:27:55.619Z,102392.31
2023-01-31T11:30:28.963Z,102393.84
2023-01-31T11:32:58.275Z,102396.84
2023-01-31T11:35:30.084Z,102398.75
2023-01-31T11:38:00.158Z,102401.13
2023-01-31T11:40:31.953Z,102393.13
2023-01-31T11:43:01.986Z,102386.06
2023-01-31T11:45:33.165Z,102395.28
2023-01-31T11:48:12.237Z,102400.88
2023-01-31T11:50:44.667Z,102395.22
2023-01-31T11:53:20.060Z,102392.97
2023-01-31T11:55:50.399Z,102390.84
2023-01-31T11:58:22.386Z,102389.16
2023-01-31T12:00:57.239Z,102384.63
2023-01-31T12:03:26.218Z,102399.97
2023-01-31T12:06:03.877Z,102405.09
2023-01-31T12:08:35.948Z,102397.03
2023-01-31T12:11:06.589Z,102402.84
2023-01-31T12:13:48.074Z,102388.50
2023-01-31T12:16:20.572Z,102384.44
2023-01-31T12:19:01.354Z,102395.44
2023-01-31T12:21:53.691Z,102398.47
2023-01-31T12:24:35.705Z,102389.06
2023-01-31T12:27:12.794Z,102394.78
2023-01-31T12:30:09.352Z,102384.38
2023-01-31T12:32:52.482Z,102393.13
2023-01-31T12:35:33.735Z,102396.47
2023-01-31T12:38:19.538Z,102418.66
2023-01-31T12:40:55.662Z,102392.59
2023-01-31T12:43:44.320Z,102399.94
2023-01-31T12:46:19.778Z,102389.50
2023-01-31T12:49:05.475Z,102401.28
2023-01-31T12:51:46.721Z,102409.78
2023-01-31T12:54:35.872Z,102432.41
2023-01-31T12:57:15.317Z,102416.59
2023-01-31T12:59:52.022Z,102412.47
2023-01-31T13:02:42.474Z,102422.41
2023-01-31T13:05:22.803Z,102432.34
2023-01-31T13:07:56.572Z,102412.47
2023-01-31T13:10:36.852Z,102433.31
2023-01-31T13:13:07.645Z,102407.19
2023-01-31T13:15:42.527Z,102408.38
2023-01-31T13:18:13.899Z,102432.81
2023-01-31T13:20:48.123Z,102430.63
2023-01-31T13:23:23.559Z,102429.47
2023-01-31T13:25:58.285Z,102426.47
2023-01-31T13:28:30.316Z,102444.00
2023-01-31T13:31:00.685Z,102427.03
2023-01-31T13:33:34.024Z,102428.38
2023-01-31T13:36:11.637Z,102429.69
2023-01-31T13:38:43.440Z,102432.31
2023-01-31T13:41:20.685Z,102449.06
2023-01-31T13:43:48.845Z,102422.78
2023-01-31T13:46:24.628Z,102416.59
2023-01-31T13:48:58.491Z,102429.81
2023-01-31T13:51:32.201Z,102404.56
2023-01-31T13:54:07.093Z,102409.25
2023-01-31T13:56:38.996Z,102412.84
2023-01-31T13:59:10.067Z,102424.38
2023-01-31T14:01:47.232Z,102407.38
2023-01-31T14:04:40.661Z,102410.50
2023-01-31T14:07:24.539Z,102424.97
2023-01-31T14:10:28.695Z,102430.81
2023-01-31T14:13:27.878Z,102401.94
2023-01-31T14:15:57.667Z,102403.50
2023-01-31T14:18:43.216Z,102410.22
2023-01-31T14:21:45.406Z,102414.19
2023-01-31T14:24:22.197Z,102408.34
2023-01-31T14:26:55.409Z,102420.66
2023-01-31T14:29:27.741Z,102415.38
2023-01-31T14:31:58.101Z,102396.47
2023-01-31T14:34:29.807Z,102397.56
2023-01-31T14:37:15.276Z,102405.47
2023-01-31T14:40:03.714Z,102406.44
2023-01-31T14:42:58.783Z,102403.22
2023-01-31T14:45:52.678Z,102406.91
2023-01-31T14:48:34.924Z,102440.81
2023-01-31T14:51:13.302Z,102415.09
2023-01-31T14:54:14.208Z,102420.72
2023-01-31T14:56:55.151Z,102420.25
2023-01-31T14:59:31.128Z,102409.72
2023-01-31T15:02:01.953Z,102422.28
2023-01-31T15:04:30.548Z,102421.59
2023-01-31T15:06:59.115Z,102414.03
2023-01-31T15:09:46.689Z,102427.06
2023-01-31T15:12:50.621Z,102429.97
2023-01-31T15:15:27.672Z,102421.84
2023-01-31T15:17:57.987Z,102418.84
2023-01-31T15:20:34.831Z,102418.72
2023-01-31T15:23:09.257Z,102415.63
2023-01-31T15:25:44.883Z,102410.59
2023-01-31T15:28:17.803Z,102418.47
2023-01-31T15:30:46.693Z,102395.88
2023-01-31T15:33:22.441Z,102419.94
2023-01-31T15:35:55.366Z,102413.78
2023-01-31T15:38:30.956Z,102418.97
2023-01-31T15:41:20.211Z,102423.25
2023-01-31T15:43:49.523Z,102418.84
2023-01-31T15:46:24.563Z,102418.34
2023-01-31T15:48:54.473Z,102426.13
2023-01-31T15:51:23.077Z,102407.00
2023-01-31T15:54:02.820Z,102404.25
2023-01-31T15:56:31.488Z,102406.78
2023-01-31T15:59:00.042Z,102413.09
2023-01-31T16:01:31.647Z,102421.69
2023-01-31T16:04:01.818Z,102423.38
2023-01-31T16:06:34.293Z,102438.09
2023-01-31T16:09:04.185Z,102419.22
2023-01-31T16:11:34.501Z,102433.19
2023-01-31T16:14:05.360Z,102419.56
2023-01-31T16:16:36.575Z,102417.63
2023-01-31T16:19:07.352Z,102421.47
2023-01-31T16:21:39.722Z,102422.56
2023-01-31T16:24:16.042Z,102432.69
2023-01-31T16:26:58.664Z,102442.75
2023-01-31T16:29:40.514Z,102433.31
2023-01-31T16:32:18.256Z,102436.16
2023-01-31T16:34:54.964Z,102438.78
2023-01-31T16:37:32.620Z,102437.34
2023-01-31T16:40:05.699Z,102448.94
2023-01-31T16:42:35.452Z,102446.19
2023-01-31T16:45:04.259Z,102449.66
2023-01-31T16:47:34.843Z,102448.69
2023-01-31T16:50:43.036Z,102460.31
2023-01-31T16:53:24.623Z,102453.13
2023-01-31T16:56:18.553Z,102465.44
2023-01-31T16:58:53.571Z,102462.63
2023-01-31T17:01:25.159Z,102469.09
2023-01-31T17:04:18.454Z,102460.47
2023-01-31T17:06:51.482Z,102456.63
2023-01-31T17:09:22.660Z,102465.44
2023-01-31T17:11:50.922Z,102471.03
2023-01-31T17:14:18.994Z,102466.88
2023-01-31T17:16:47.380Z,102475.81
2023-01-31T17:19:16.188Z,102459.78
2023-01-31T17:21:47.530Z,102458.94
2023-01-31T17:24:18.198Z,102452.00
2023-01-31T17:26:46.564Z,102460.34
2023-01-31T17:29:14.676Z,102471.81
2023-01-31T17:31:43.223Z,102456.16
2023-01-31T17:34:14.741Z,102442.63
2023-01-31T17:36:42.814Z,102452.41
2023-01-31T17:39:12.320Z,102450.84
2023-01-31T17:41:41.430Z,102456.22
2023-01-31T17:44:14.164Z,102451.91
2023-01-31T17:46:43.140Z,102442.34
2023-01-31T17:49:11.510Z,102451.16
2023-01-31T17:51:40.009Z,102453.59
2023-01-31T17:54:08.739Z,102447.59
2023-01-31T17:56:38.515Z,102450.34
2023-01-31T17:59:08.382Z,102451.38
2023-01-31T18:01:36.700Z,102444.53
2023-01-31T18:04:05.601Z,102446.34
2023-01-31T18:06:33.742Z,102447.97
2023-01-31T18:09:04.011Z,102427.28
2023-01-31T18:11:32.207Z,102431.78
2023-01-31T18:14:03.952Z,102420.56
2023-01-31T18:16:32.395Z,102429.41
2023-01-31T18:19:00.627Z,102407.56
2023-01-31T18:21:28.882Z,102422.56
2023-01-31T18:23:58.964Z,102419.00
2023-01-31T18:26:27.378Z,102413.75
2023-01-31T18:28:57.570Z,102414.47
2023-01-31T18:31:27.385Z,102416.28
2023-01-31T18:33:55.869Z,102405.03
2023-01-31T18:36:24.010Z,102408.28
2023-01-31T18:38:52.537Z,102402.72
2023-01-31T18:41:22.391Z,102408.00
2023-01-31T18:43:50.933Z,102401.91
2023-01-31T18:46:19.415Z,102402.97
2023-01-31T18:48:49.356Z,102402.84
2023-01-31T18:51:18.283Z,102405.38
2023-01-31T18:53:47.723Z,102408.22
2023-01-31T18:56:17.759Z,102395.09
2023-01-31T18:58:47.316Z,102394.34
2023-01-31T19:01:17.421Z,102399.81
2023-01-31T19:03:46.995Z,102397.94
2023-01-31T19:06:18.191Z,102405.81
2023-01-31T19:08:48.978Z,102417.25
2023-01-31T19:11:18.168Z,102403.41
2023-01-31T19:13:46.991Z,102393.84
2023-01-31T19:16:16.938Z,102396.81
2023-01-31T19:18:45.416Z,102409.09
2023-01-31T19:21:18.961Z,102409.09
2023-01-31T19:23:48.390Z,102420.22
2023-01-31T19:26:17.434Z,102407.94
2023-01-31T19:28:47.181Z,102396.69
2023-01-31T19:31:17.036Z,102398.47
2023-01-31T19:33:49.699Z,102390.72
2023-01-31T19:36:20.713Z,102407.41
2023-01-31T19:38:49.453Z,102405.63
2023-01-31T19:41:21.056Z,102406.69
2023-01-31T19:43:49.927Z,102392.97
2023-01-31T19:46:18.541Z,102403.53
2023-01-31T19:48:47.211Z,102394.00
2023-01-31T19:51:17.143Z,102406.16
2023-01-31T19:53:47.530Z,102407.97
2023-01-31T19:56:16.703Z,102401.75
2023-01-31T19:58:45.557Z,102405.34
2023-01-31T20:01:16.458Z,102396.50
2023-01-31T20:03:45.096Z,102387.91
2023-01-31T20:06:14.940Z,102404.63
2023-01-31T20:08:43.628Z,102392.34
2023-01-31T20:11:13.262Z,102388.97
2023-01-31T20:13:42.146Z,102412.56
2023-01-31T20:16:12.389Z,102415.44
2023-01-31T20:18:43.785Z,102406.41
2023-01-31T20:21:15.918Z,102397.59
2023-01-31T20:23:45.531Z,102407.13
2023-01-31T20:26:16.028Z,102396.41
2023-01-31T20:28:44.628Z,102398.41
2023-01-31T20:31:15.403Z,102392.09
2023-01-31T20:33:44.031Z,102379.91
2023-01-31T20:36:13.163Z,102378.38
2023-01-31T20:38:41.603Z,102392.34
2023-01-31T20:41:10.260Z,102389.59
2023-01-31T20:43:39.890Z,102399.13
2023-01-31T20:46:09.455Z,102394.84
2023-01-31T20:48:37.996Z,102398.28
2023-01-31T20:51:07.322Z,102392.34
2023-01-31T20:53:35.895Z,102377.53
2023-01-31T20:56:05.822Z,102354.75
2023-01-31T20:58:35.956Z,102355.59
2023-01-31T21:01:06.910Z,102360.22
2023-01-31T21:03:35.877Z,102360.09
2023-01-31T21:06:05.176Z,102342.81
2023-01-31T21:08:35.525Z,102369.03
2023-01-31T21:11:07.588Z,102375.97
2023-01-31T21:13:35.987Z,102380.50
2023-01-31T21:16:07.798Z,102376.78
2023-01-31T21:18:38.193Z,102388.44
2023-01-31T21:21:08.957Z,102382.16
2023-01-31T21:23:38.566Z,102377.88
2023-01-31T21:26:08.661Z,102375.13
2023-01-31T21:28:37.657Z,102371.34
2023-01-31T21:31:12.614Z,102360.00
2023-01-31T21:33:41.324Z,102364.63
2023-01-31T21:36:11.008Z,102354.34
2023-01-31T21:38:39.529Z,102370.00
2023-01-31T21:41:25.862Z,102361.38
2023-01-31T21:43:54.487Z,102356.25
2023-01-31T21:46:24.984Z,102348.38
2023-01-31T21:48:53.525Z,102355.50
2023-01-31T21:51:25.382Z,102346.59
2023-01-31T21:53:54.180Z,102345.75
2023-01-31T21:56:23.935Z,102347.63
2023-01-31T21:58:54.904Z,102328.22
2023-01-31T22:01:26.414Z,102342.63
2023-01-31T22:03:54.695Z,102352.38
2023-01-31T22:06:27.193Z,102341.38
2023-01-31T22:08:58.085Z,102348.91
2023-01-31T22:11:28.603Z,102326.13
2023-01-31T22:13:56.673Z,102334.84
2023-01-31T22:16:26.397Z,102314.72
2023-01-31T22:18:54.841Z,102334.00
2023-01-31T22:21:25.911Z,102326.03
2023-01-31T22:23:55.534Z,102328.75
2023-01-31T22:26:25.628Z,102333.09
2023-01-31T22:28:57.474Z,102335.91
2023-01-31T22:31:27.496Z,102335.06
2023-01-31T22:33:56.186Z,102329.00
2023-01-31T22:36:25.410Z,102330.03
2023-01-31T22:38:54.705Z,102342.13
2023-01-31T22:41:23.608Z,102340.31
2023-01-31T22:43:56.042Z,102337.78
2023-01-31T22:46:27.441Z,102328.50
2023-01-31T22:48:55.669Z,102337.19
2023-01-31T22:51:26.991Z,102329.09
2023-01-31T22:53:55.718Z,102326.38
2023-01-31T22:56:25.804Z,102342.13
2023-01-31T22:58:56.833Z,102338.66
2023-01-31T23:01:28.337Z,102340.41
2023-01-31T23:03:57.752Z,102341.38
2023-01-31T23:06:26.436Z,102335.41
2023-01-31T23:08:58.305Z,102344.94
2023-01-31T23:11:34.324Z,102342.44
2023-01-31T23:14:03.280Z,102349.25
2023-01-31T23:16:46.662Z,102336.13
2023-01-31T23:19:16.566Z,102332.53
2023-01-31T23:21:45.091Z,102312.63
2023-01-31T23:24:14.596Z,102326.59
2023-01-31T23:26:43.156Z,102330.16
2023-01-31T23:29:11.547Z,102332.88
2023-01-31T23:31:41.509Z,102323.97
2023-01-31T23:34:09.785Z,102321.34
2023-01-31T23:36:38.579Z,102323.00
2023-01-31T23:39:07.070Z,102327.63
2023-01-31T23:41:35.179Z,102321.47
2023-01-31T23:44:03.706Z,102336.13
2023-01-31T23:46:31.909Z,102329.09
2023-01-31T23:49:01.519Z,102332.53
2023-01-31T23:51:31.476Z,102318.00
2023-01-31T23:53:59.801Z,102325.63
2023-01-31T23:56:27.871Z,102334.56
2023-01-31T23:58:56.071Z,102331.00
